Latest Weather Observations for Lajamanu

IDD60801

Issued at 6:05 pm CST Saturday 22 November 2014 (issued every 30 minutes, with the page automatically refreshed every 10 minutes)

About weather observations | Map of weather stations | Latest weather observations for NT | Other Formats
Station Details ID: 014829 Name: LAJAMANU AIRPORT Lat: -18.33 Lon: 130.64 Height: 315.6 m
Data from the previous 72 hours. | See also: Recent months at Lajamanu
Date/Time
CST
Temp
°C
App
Temp
°C
Dew
Point
Rel
Hum
%
Delta-T
°C
Wind Press
QNH
hPa
Press
MSL
hPa
Rain
since 9 am
mm
Dir
 
Spd
km/h
Gust
km/h
Spd
kts
Gust
kts
22/06:00pm 35.2 33.8 13.4 27 13.5 E 13 20 7 11 1009.0 1006.6 0.2
22/05:30pm 35.5 33.8 13.6 26 13.6 E 15 20 8 11 1008.7 1006.3 0.2
22/05:00pm 35.6 34.3 14.8 28 13.1 ESE 15 24 8 13 1008.9 1006.5 0.2
22/04:30pm 34.9 33.2 13.7 28 13.1 ESE 15 20 8 11 1009.3 1006.9 0.2
22/04:00pm 34.4 33.5 15.8 33 11.8 SE 15 20 8 11 1009.8 1007.3 0.2
22/03:30pm 34.0 32.4 15.0 32 11.9 ESE 17 20 9 11 1010.4 1007.9 0.2
22/03:00pm 33.9 32.1 15.4 33 11.7 ESE 19 24 10 13 1011.0 1008.6 0.2
22/02:30pm 32.6 31.1 16.4 37 10.3 ESE 19 24 10 13 1011.3 1008.9 0.2
22/02:00pm 32.2 32.5 16.1 38 10.2 E 9 15 5 8 1012.0 1009.6 0.2
22/01:30pm 32.0 32.6 18.6 45 8.8 E 13 20 7 11 1012.3 1009.9 0.2
22/01:00pm 31.3 32.7 18.6 46 8.3 NE 9 15 5 8 1013.1 1010.6 0.2
22/12:30pm 30.2 30.9 19.6 53 7.0 N 15 19 8 10 1013.5 1011.0 0.2
22/12:00pm 29.0 30.8 20.4 59 5.7 SE 11 17 6 9 1013.3 1010.8 0.2
22/11:30am 28.9 31.5 19.2 55 6.4 N 4 11 2 6 1013.5 1011.0 0.0
22/11:00am 28.5 30.9 20.0 60 5.6 WNW 7 11 4 6 1013.1 1010.6 0.0
22/10:30am 28.4 30.5 19.3 57 6.0 NW 7 9 4 5 1013.1 1010.6 0.0
22/10:00am 27.6 30.4 21.6 70 4.1 NNW 9 13 5 7 1013.6 1011.1 0.0
22/09:30am 28.3 31.3 21.3 65 4.7 N 7 9 4 5 1013.6 1011.1 0.0
22/09:00am 27.4 31.8 21.4 70 4.0 CALM 0 0 0 0 1013.4 1010.9 1.6
22/08:30am 26.8 31.4 21.8 74 3.4 CALM 0 0 0 0 1013.3 1010.8 1.6
22/08:00am 26.6 29.9 21.4 73 3.5 E 6 7 3 4 1013.2 1010.7 1.6
22/07:30am 26.9 29.5 21.2 71 3.8 ESE 9 11 5 6 1013.2 1010.7 1.6
22/07:00am 25.7 28.4 21.4 77 2.9 WNW 9 13 5 7 1013.1 1010.6 1.6
22/06:30am 25.1 26.4 20.1 74 3.3 ENE 13 17 7 9 1012.6 1010.2 1.6
22/06:00am 25.4 27.8 20.9 76 3.0 ENE 9 15 5 8 1012.3 1009.9 1.4
22/05:30am 25.4 28.5 21.5 79 2.6 NNW 7 9 4 5 1012.0 1009.6 1.2
22/05:00am 26.0 27.7 20.1 70 3.9 NE 11 17 6 9 1011.8 1009.4 1.2
22/04:30am 26.1 29.5 20.9 73 3.5 S 4 7 2 4 1011.3 1008.9 1.2
22/04:00am 26.1 27.8 20.9 73 3.5 E 13 17 7 9 1010.7 1008.2 1.0
22/03:30am 26.8 28.7 19.7 65 4.7 ENE 9 13 5 7 1010.5 1008.0 0.8
22/03:00am 27.7 29.9 19.5 61 5.4 NNW 7 11 4 6 1010.7 1008.2 0.8
22/02:30am 27.9 29.4 19.7 61 5.4 N 11 17 6 9 1011.0 1008.6 0.8
22/02:00am 27.9 29.4 19.7 61 5.4 NNW 11 15 6 8 1011.0 1008.6 0.8
22/01:30am 27.8 29.7 19.8 61 5.3 SW 9 11 5 6 1011.1 1008.7 0.8
22/01:00am 28.0 29.8 20.3 63 5.1 SSE 11 17 6 9 1010.7 1008.2 0.8
22/12:30am 27.6 29.9 19.4 61 5.4 SW 6 11 3 6 1011.2 1008.8 0.8
22/12:00am 28.5 30.5 19.1 56 6.2 E 7 9 4 5 1011.1 1008.7 0.8
 
Date/Time
CST
Temp
°C
App
Temp
°C
Dew
Point
Rel
Hum
%
Delta-T
°C
Wind Press
QNH
hPa
Press
MSL
hPa
Rain
since 9 am
mm
Dir
 
Spd
km/h
Gust
km/h
Spd
kts
Gust
kts
21/11:30pm 28.0 27.3 18.7 57 6.0 ESE 20 28 11 15 1011.2 1008.8 0.6
21/11:00pm 28.7 30.8 18.2 53 6.8 E 4 15 2 8 1011.6 1009.2 0.4
21/10:30pm 28.7 28.1 18.5 54 6.6 E 19 26 10 14 1012.0 1009.6 0.4
21/10:00pm 29.8 31.0 18.3 50 7.5 SE 9 11 5 6 1010.8 1008.4 0.4
21/09:30pm 29.5 30.5 18.6 52 7.1 S 11 17 6 9 1010.4 1007.9 0.4
21/09:00pm 28.4 26.2 18.8 56 6.3 ESE 28 37 15 20 1009.6 1007.1 0.2
21/08:30pm 28.3 27.5 18.4 55 6.4 S 20 28 11 15 1009.7 1007.2 0.2
21/08:00pm 33.2 30.1 13.3 30 12.2 SSE 22 28 12 15 1009.8 1007.3 0.0
21/07:57pm 32.9 28.9 14.0 32 11.7 ESE 28 41 15 22 1009.8 1007.3 0.0
21/07:30pm 32.9 31.1 14.5 33 11.4 SSW 17 22 9 12 1008.4 1006.0 0.0
21/07:00pm 32.9 30.2 14.5 33 11.4 W 22 35 12 19 1008.4 1006.0 0.0
21/06:30pm 33.3 31.3 13.9 31 12.0 W 17 30 9 16 1007.4 1004.9 0.0
21/06:00pm 36.6 34.4 10.7 21 15.5 NW 13 20 7 11 1006.9 1004.4 0.0
21/05:30pm 39.6 35.6 9.1 16 18.0 N 20 30 11 16 1006.4 1003.9 0.0
21/05:00pm 40.4 37.3 8.8 15 18.6 NNW 15 20 8 11 1006.3 1003.8 0.0
21/04:30pm 41.0 37.7 8.2 14 19.2 NNW 15 22 8 12 1006.2 1003.7 0.0
21/04:00pm 40.9 39.0 9.2 15 18.8 N 9 20 5 11 1006.5 1004.0 0.0
21/03:30pm 41.7 37.8 8.8 14 19.5 NNW 19 28 10 15 1006.9 1004.4 0.0
21/03:00pm 41.9 39.2 8.9 14 19.6 NW 13 28 7 15 1007.4 1004.9 0.0
21/02:30pm 42.4 39.0 9.3 14 19.8 NNW 17 26 9 14 1007.8 1005.3 0.0
21/02:00pm 40.2 36.6 10.5 17 17.9 NNW 20 24 11 13 1008.3 1005.9 0.0
21/01:30pm 40.3 38.0 10.5 17 18.0 NW 13 20 7 11 1008.8 1006.4 0.0
21/01:00pm 40.4 38.1 10.6 17 18.0 NW 13 20 7 11 1009.2 1006.8 0.0
21/12:30pm 41.0 39.0 10.2 16 18.6 WNW 11 26 6 14 1009.8 1007.3 0.0
21/12:00pm 39.7 38.3 10.9 18 17.4 SW 9 17 5 9 1010.2 1007.7 0.0
21/11:30am 40.0 38.3 11.2 18 17.5 NNW 11 20 6 11 1010.6 1008.1 0.0
21/11:00am 39.0 37.3 11.2 19 16.8 W 11 20 6 11 1011.0 1008.6 0.0
21/10:30am 38.4 37.4 12.2 21 16.1 E 9 28 5 15 1011.2 1008.8 0.0
21/10:00am 37.2 36.1 11.9 22 15.4 S 9 17 5 9 1011.4 1009.0 0.0
21/09:30am 36.2 34.9 12.4 24 14.5 SW 11 19 6 10 1011.5 1009.1 0.0
21/09:00am 35.0 33.7 12.6 26 13.6 WSW 11 20 6 11 1011.6 1009.2 0.0
21/08:30am 33.9 32.3 12.8 28 12.8 WNW 13 17 7 9 1011.5 1009.1 0.0
21/08:00am 32.9 32.5 14.0 32 11.7 W 9 15 5 8 1011.5 1009.1 0.0
21/07:30am 30.8 30.7 14.0 36 10.3 W 7 11 4 6 1011.2 1008.8 0.0
21/07:00am 28.0 28.7 14.6 44 8.2 W 4 7 2 4 1010.9 1008.5 0.0
21/06:30am 26.7 26.6 13.8 45 7.8 NW 7 9 4 5 1010.4 1007.9 0.0
21/06:00am 27.3 27.0 13.3 42 8.4 NNW 7 11 4 6 1010.0 1007.5 0.0
21/05:30am 27.4 26.6 13.0 41 8.6 NNW 9 13 5 7 1009.6 1007.1 0.0
21/05:00am 27.3 26.5 12.9 41 8.5 NNW 9 11 5 6 1009.3 1006.9 0.0
21/04:30am 27.3 27.3 12.5 40 8.7 WNW 4 7 2 4 1008.9 1006.5 0.0
21/04:00am 28.0 28.8 12.4 38 9.2 CALM 0 0 0 0 1009.0 1006.6 0.0
21/03:30am 28.6 29.1 11.6 34 10.0 CALM 0 0 0 0 1008.8 1006.4 0.0
21/03:00am 30.2 29.6 11.7 32 10.9 WSW 6 7 3 4 1009.0 1006.6 0.0
21/02:30am 30.1 29.0 12.1 33 10.7 W 9 11 5 6 1009.1 1006.7 0.0
21/02:00am 30.3 29.7 12.2 33 10.8 WNW 7 7 4 4 1009.0 1006.6 0.0
21/01:30am 30.1 29.6 12.1 33 10.7 W 6 7 3 4 1009.0 1006.6 0.0
21/01:00am 30.5 29.3 11.5 31 11.2 W 9 13 5 7 1009.3 1006.9 0.0
21/12:30am 31.5 30.4 10.8 28 12.1 WNW 7 9 4 5 1009.3 1006.9 0.0
21/12:00am 33.6 31.8 10.9 25 13.4 N 11 15 6 8 1009.3 1006.9 0.0
 
Date/Time
CST
Temp
°C
App
Temp
°C
Dew
Point
Rel
Hum
%
Delta-T
°C
Wind Press
QNH
hPa
Press
MSL
hPa
Rain
since 9 am
mm
Dir
 
Spd
km/h
Gust
km/h
Spd
kts
Gust
kts
20/11:30pm 33.3 32.0 11.2 26 13.1 N 9 11 5 6 1009.7 1007.2 0.0
20/11:00pm 33.4 32.3 11.9 27 12.9 N 9 11 5 6 1009.8 1007.3 0.0
20/10:30pm 33.2 32.4 11.7 27 12.8 NNW 7 9 4 5 1009.8 1007.3 0.0
20/10:00pm 34.4 33.0 12.1 26 13.4 N 11 11 6 6 1009.6 1007.1 0.0
20/09:30pm 34.2 33.7 12.5 27 13.2 NNW 7 9 4 5 1009.3 1006.9 0.0
20/09:00pm 34.7 34.1 11.8 25 13.8 NW 6 7 3 4 1009.1 1006.7 0.0
20/08:30pm 35.5 34.2 11.2 23 14.5 WNW 9 13 5 7 1008.8 1006.4 0.0
20/08:00pm 36.6 34.8 10.7 21 15.4 NNW 11 17 6 9 1008.3 1005.9 0.0
20/07:30pm 37.8 35.4 8.6 17 17.0 NNW 11 17 6 9 1007.9 1005.5 0.0
20/07:00pm 38.2 36.3 8.9 17 17.1 NW 9 19 5 10 1007.6 1005.1 0.0
20/06:30pm 38.8 36.2 9.4 17 17.4 NW 13 20 7 11 1007.1 1004.6 0.0
20/06:00pm 39.1 36.3 8.7 16 17.8 NW 13 15 7 8 1006.7 1004.2 0.0
20/05:30pm 39.5 36.6 8.1 15 18.3 WNW 13 22 7 12 1006.5 1004.0 0.0
20/05:00pm 41.6 37.2 7.6 13 19.8 N 20 26 11 14 1006.4 1003.9 0.0
20/04:30pm 41.6 36.9 7.6 13 19.8 N 22 30 12 16 1006.5 1004.0 0.0
20/04:00pm 40.7 36.6 8.0 14 19.0 N 19 28 10 15 1006.8 1004.3 0.0
20/03:30pm 43.2 39.7 8.8 13 20.5 N 17 28 9 15 1007.1 1004.6 0.0
20/03:00pm 41.5 37.6 8.6 14 19.4 N 19 28 10 15 1007.5 1005.0 0.0
20/02:30pm 40.2 38.6 8.6 15 18.6 NNE 7 13 4 7 1007.7 1005.2 0.0
20/02:00pm 42.1 39.1 9.1 14 19.6 N 15 28 8 15 1008.1 1005.7 0.0
20/01:30pm 41.2 39.0 9.4 15 19.0 NNW 11 20 6 11 1008.6 1006.2 0.0
20/01:00pm 41.6 38.7 9.7 15 19.1 NNE 15 26 8 14 1009.0 1006.6 0.0
20/12:30pm 40.3 36.6 11.4 18 17.7 N 22 39 12 21 1009.6 1007.1 0.0
20/12:00pm 40.1 37.5 12.1 19 17.3 NNW 17 37 9 20 1010.0 1007.5 0.0
20/11:30am 39.6 36.3 11.7 19 17.1 N 20 32 11 17 1010.5 1008.0 0.0
20/11:00am 39.2 36.5 12.9 21 16.3 N 19 26 10 14 1011.0 1008.6 0.0
20/10:30am 37.7 34.8 13.0 23 15.3 N 20 32 11 17 1011.3 1008.9 0.0
20/10:00am 37.1 34.5 13.2 24 14.8 NW 19 26 10 14 1011.5 1009.1 0.0
20/09:30am 36.1 33.2 13.0 25 14.2 NW 20 28 11 15 1011.8 1009.4 0.0
20/09:00am 35.3 32.8 13.5 27 13.5 NW 19 30 10 16 1011.8 1009.4 0.0
20/08:30am 34.2 31.9 14.1 29 12.5 NW 19 28 10 15 1011.6 1009.2 0.0
20/08:00am 33.1 31.0 14.7 33 11.5 NW 19 28 10 15 1011.4 1009.0 0.0
20/07:30am 31.5 29.9 15.0 36 10.3 NNW 17 22 9 12 1011.2 1008.8 0.0
20/07:00am 29.9 27.8 14.8 39 9.3 NNW 19 24 10 13 1011.0 1008.6 0.0
20/06:30am 28.9 27.3 13.9 39 9.1 NNW 15 20 8 11 1010.7 1008.2 0.0
20/06:00am 29.3 27.6 13.5 38 9.6 NNW 15 20 8 11 1010.4 1007.9 0.0
20/05:30am 29.6 28.0 13.8 38 9.6 N 15 20 8 11 1010.3 1007.8 0.0
20/05:00am 29.8 28.4 13.5 36 9.9 NNW 13 19 7 10 1009.9 1007.4 0.0
20/04:30am 29.7 28.5 13.9 38 9.6 NNW 13 19 7 10 1009.8 1007.3 0.0
20/04:00am 29.0 27.9 13.2 37 9.5 NNW 11 15 6 8 1009.8 1007.3 0.0
20/03:30am 29.6 28.0 12.9 35 10.0 NNW 13 17 7 9 1009.6 1007.1 0.0
20/03:00am 29.6 27.8 12.1 34 10.4 NNW 13 13 7 7 1009.6 1007.1 0.0
20/02:30am 30.1 28.1 11.6 32 10.9 N 13 15 7 8 1009.7 1007.2 0.0
20/02:00am 30.3 28.5 10.8 30 11.3 NW 11 15 6 8 1009.8 1007.3 0.0
20/01:30am 30.0 28.0 10.0 29 11.5 NNW 11 13 6 7 1010.0 1007.5 0.0
20/01:00am 31.1 28.3 9.9 27 12.2 NNW 15 17 8 9 1010.3 1007.8 0.0
20/12:30am 31.6 28.4 8.6 24 13.0 N 15 19 8 10 1010.5 1008.0 0.0
20/12:00am 32.5 29.8 7.4 21 14.0 N 11 13 6 7 1010.5 1008.0 0.0
 
Date/Time
CST
Temp
°C
App
Temp
°C
Dew
Point
Rel
Hum
%
Delta-T
°C
Wind Press
QNH
hPa
Press
MSL
hPa
Rain
since 9 am
mm
Dir
 
Spd
km/h
Gust
km/h
Spd
kts
Gust
kts
19/11:30pm 33.0 29.9 7.1 20 14.4 NNE 13 15 7 8 1010.5 1008.0 0.0
19/11:00pm 31.6 29.1 6.6 21 13.7 NNE 9 11 5 6 1010.5 1008.0 0.0
19/10:30pm 32.1 29.7 7.0 21 13.9 ENE 9 11 5 6 1010.5 1008.0 0.0
19/10:00pm 32.0 29.2 7.0 21 13.8 E 11 13 6 7 1010.4 1007.9 0.0
19/09:30pm 32.0 29.6 7.0 21 13.8 E 9 13 5 7 1010.3 1007.8 0.0
19/09:00pm 31.5 28.8 5.8 20 13.9 N 9 9 5 5 1009.8 1007.3 0.0
19/08:30pm 34.3 31.4 6.6 18 15.4 N 11 11 6 6 1009.5 1007.0 0.0
19/08:00pm 35.6 32.6 5.9 16 16.4 N 11 13 6 7 1009.2 1006.8 0.0
19/07:30pm 35.7 32.5 5.1 15 16.7 NNE 11 13 6 7 1008.8 1006.4 0.0
19/07:00pm 37.8 35.1 5.7 14 17.8 NE 9 15 5 8 1008.5 1006.1 0.0
19/06:30pm 38.9 35.0 5.5 13 18.6 NE 15 20 8 11 1008.3 1005.9 0.0

Other Formats:

Comma delimited format used in spreadsheet applications
http://www.bom.gov.au/fwo/IDD60801/IDD60801.94231.axf

JavaScript Object Notation format (JSON) in row-major order
http://www.bom.gov.au/fwo/IDD60801/IDD60801.94231.json